Camborne, United Kingdom
Current Conditions -  °F | °C
As of 1:50 AM on Sunday 23 Nov 2014 (Local Time) from EGDR Reporting Station
Moderate Rain Moderate Rain  
Wind Chill: 44°   Ceiling: 5000
Heat Index: 48°   Visibility: 6mi
Dew Point: 45°   Wind: 10mph
Humidity: 87%   Direction: 340°NNW
Pressure: 30.03"   Gusts: NA
Location:  50.21°N, 5.3°W
Report Text: EGDR 230150Z 34009KT 9999 RA FEW014 SCT040 OVC050 09/07 Q1017 BLU
Loading
Personal Weather Stations






























Interactive Weather Map New forecast layout! Learn more

10-Day Weather Forecast

Advertisements
Track Severe Weather on mobile